createdAt,value
2023-02-22T00:01:50.974Z,4.91
2023-02-22T00:04:21.040Z,4.93
2023-02-22T00:06:48.875Z,4.84
2023-02-22T00:09:20.404Z,4.90
2023-02-22T00:11:48.568Z,4.78
2023-02-22T00:14:15.044Z,4.79
2023-02-22T00:16:41.525Z,4.80
2023-02-22T00:19:08.618Z,4.60
2023-02-22T00:21:34.993Z,4.60
2023-02-22T00:24:16.909Z,4.61
2023-02-22T00:26:43.313Z,4.60
2023-02-22T00:29:09.659Z,4.59
2023-02-22T00:31:39.391Z,4.62
2023-02-22T00:34:05.853Z,4.67
2023-02-22T00:36:32.288Z,4.69
2023-02-22T00:38:58.649Z,4.71
2023-02-22T00:41:25.047Z,4.69
2023-02-22T00:43:51.404Z,4.70
2023-02-22T00:46:17.821Z,4.69
2023-02-22T00:48:44.472Z,4.76
2023-02-22T00:51:10.925Z,4.75
2023-02-22T00:53:37.395Z,4.81
2023-02-22T00:56:04.032Z,4.83
2023-02-22T00:58:30.459Z,4.81
2023-02-22T01:00:56.839Z,4.83
2023-02-22T01:03:23.265Z,4.90
2023-02-22T01:05:49.939Z,4.80
2023-02-22T01:08:17.444Z,4.85
2023-02-22T01:10:44.106Z,4.87
2023-02-22T01:13:12.484Z,4.89
2023-02-22T01:15:42.063Z,4.87
2023-02-22T01:18:09.511Z,4.98
2023-02-22T01:20:36.842Z,4.99
2023-02-22T01:23:06.655Z,5.03
2023-02-22T01:25:34.264Z,5.03
2023-02-22T01:28:01.989Z,5.01
2023-02-22T01:30:30.967Z,4.95
2023-02-22T01:32:57.987Z,4.94
2023-02-22T01:35:28.333Z,4.97
2023-02-22T01:37:55.369Z,4.96
2023-02-22T01:40:32.034Z,4.99
2023-02-22T01:43:02.909Z,4.95
2023-02-22T01:45:34.946Z,5.02
2023-02-22T01:48:04.261Z,5.06
2023-02-22T01:50:34.283Z,5.04
2023-02-22T01:53:02.090Z,5.05
2023-02-22T01:55:28.936Z,5.04
2023-02-22T01:57:55.353Z,5.04
2023-02-22T02:00:24.285Z,4.99
2023-02-22T02:03:02.643Z,5.04
2023-02-22T02:05:31.401Z,4.99
2023-02-22T02:07:59.419Z,5.03
2023-02-22T02:10:26.580Z,5.00
2023-02-22T02:12:53.872Z,5.02
2023-02-22T02:15:31.052Z,4.99
2023-02-22T02:18:10.346Z,4.97
2023-02-22T02:21:07.456Z,4.96
2023-02-22T02:24:05.819Z,5.00
2023-02-22T02:26:44.702Z,5.04
2023-02-22T02:29:47.219Z,4.95
2023-02-22T02:32:36.133Z,4.97
2023-02-22T02:35:11.634Z,5.05
2023-02-22T02:38:12.824Z,4.96
2023-02-22T02:40:47.311Z,4.95
2023-02-22T02:43:39.639Z,5.04
2023-02-22T02:46:25.239Z,4.96
2023-02-22T02:48:56.619Z,4.93
2023-02-22T02:51:27.931Z,4.90
2023-02-22T02:53:55.757Z,4.89
2023-02-22T02:56:23.391Z,4.82
2023-02-22T02:58:52.776Z,4.82
2023-02-22T03:01:24.944Z,4.85
2023-02-22T03:04:05.817Z,4.84
2023-02-22T03:06:50.969Z,4.79
2023-02-22T03:09:35.738Z,4.73
2023-02-22T03:12:15.035Z,4.65
2023-02-22T03:14:55.774Z,4.63
2023-02-22T03:17:32.292Z,4.74
2023-02-22T03:20:06.218Z,4.61
2023-02-22T03:22:48.073Z,4.58
2023-02-22T03:25:20.881Z,4.49
2023-02-22T03:27:54.277Z,4.57
2023-02-22T03:30:37.516Z,4.54
2023-02-22T03:33:09.024Z,4.52
2023-02-22T03:35:44.248Z,4.55
2023-02-22T03:38:11.940Z,4.56
2023-02-22T03:40:44.030Z,4.42
2023-02-22T03:43:15.971Z,4.47
2023-02-22T03:45:44.725Z,4.53
2023-02-22T03:48:20.622Z,4.52
2023-02-22T03:50:49.914Z,4.55
2023-02-22T03:53:18.589Z,4.51
2023-02-22T03:55:51.531Z,4.53
2023-02-22T03:58:20.586Z,4.48
2023-02-22T04:00:47.791Z,4.58
2023-02-22T04:03:14.181Z,4.57
2023-02-22T04:05:40.522Z,4.57
2023-02-22T04:08:06.954Z,4.55
2023-02-22T04:10:33.518Z,4.59
2023-02-22T04:12:59.952Z,4.67
2023-02-22T04:15:26.361Z,4.71
2023-02-22T04:17:52.771Z,4.67
2023-02-22T04:20:19.896Z,4.72
2023-02-22T04:22:47.214Z,4.73
2023-02-22T04:25:14.123Z,4.68
2023-02-22T04:27:40.486Z,4.69
2023-02-22T04:30:07.299Z,4.71
2023-02-22T04:32:33.684Z,4.71
2023-02-22T04:35:00.079Z,4.77
2023-02-22T04:37:26.506Z,4.77
2023-02-22T04:39:52.931Z,4.74
2023-02-22T04:42:19.345Z,4.73
2023-02-22T04:44:45.721Z,4.77
2023-02-22T04:47:12.196Z,4.76
2023-02-22T04:49:39.153Z,4.76
2023-02-22T04:52:05.611Z,4.75
2023-02-22T04:54:32.077Z,4.77
2023-02-22T04:56:58.394Z,4.76
2023-02-22T04:59:24.869Z,4.77
2023-02-22T05:01:51.297Z,4.75
2023-02-22T05:04:17.934Z,4.78
2023-02-22T05:06:44.295Z,4.85
2023-02-22T05:09:10.628Z,4.78
2023-02-22T05:11:37.009Z,4.77
2023-02-22T05:14:03.395Z,4.77
2023-02-22T05:16:29.846Z,4.72
2023-02-22T05:18:56.316Z,4.66
2023-02-22T05:21:22.676Z,4.70
2023-02-22T05:23:49.147Z,4.67
2023-02-22T05:26:15.568Z,4.59
2023-02-22T05:28:41.925Z,4.58
2023-02-22T05:31:08.947Z,4.63
2023-02-22T05:33:35.475Z,4.61
2023-02-22T05:36:02.149Z,4.60
2023-02-22T05:38:28.829Z,4.64
2023-02-22T05:40:55.278Z,4.65
2023-02-22T05:43:21.660Z,4.63
2023-02-22T05:45:48.008Z,4.60
2023-02-22T05:48:14.387Z,4.51
2023-02-22T05:50:40.736Z,4.54
2023-02-22T05:53:07.138Z,4.61
2023-02-22T05:55:33.455Z,4.60
2023-02-22T05:58:01.618Z,4.53
2023-02-22T06:00:30.755Z,4.54
2023-02-22T06:03:06.998Z,4.53
2023-02-22T06:05:33.488Z,4.46
2023-02-22T06:08:00.014Z,4.43
2023-02-22T06:10:27.290Z,4.43
2023-02-22T06:12:55.145Z,4.45
2023-02-22T06:15:23.280Z,4.44
2023-02-22T06:17:50.650Z,4.41
2023-02-22T06:20:20.532Z,4.42
2023-02-22T06:22:48.103Z,4.41
2023-02-22T06:25:16.454Z,4.38
2023-02-22T06:27:42.816Z,4.37
2023-02-22T06:30:13.343Z,4.39
2023-02-22T06:32:39.971Z,4.41
2023-02-22T06:35:06.823Z,4.40
2023-02-22T06:37:33.468Z,4.37
2023-02-22T06:40:04.842Z,4.37
2023-02-22T06:42:31.596Z,4.35
2023-02-22T06:44:58.039Z,4.34
2023-02-22T06:47:24.403Z,4.33
2023-02-22T06:49:58.344Z,4.31
2023-02-22T06:52:25.381Z,4.29
2023-02-22T06:54:51.879Z,4.33
2023-02-22T06:57:18.616Z,4.38
2023-02-22T06:59:45.396Z,4.35
2023-02-22T07:02:12.632Z,4.33
2023-02-22T07:04:41.711Z,4.27
2023-02-22T07:07:09.660Z,4.31
2023-02-22T07:09:36.071Z,4.28
2023-02-22T07:12:02.428Z,4.29
2023-02-22T07:14:28.824Z,4.29
2023-02-22T07:16:55.216Z,4.30
2023-02-22T07:19:21.555Z,4.37
2023-02-22T07:21:48.048Z,4.44
2023-02-22T07:24:14.462Z,4.48
2023-02-22T07:26:42.250Z,4.47
2023-02-22T07:29:08.697Z,4.57
2023-02-22T07:31:36.654Z,4.58
2023-02-22T07:34:03.045Z,4.66
2023-02-22T07:36:29.473Z,4.74
2023-02-22T07:38:55.867Z,4.85
2023-02-22T07:41:23.026Z,4.97
2023-02-22T07:43:49.402Z,5.06
2023-02-22T07:46:15.782Z,5.13
2023-02-22T07:48:42.132Z,5.16
2023-02-22T07:51:09.796Z,5.34
2023-02-22T07:53:36.437Z,5.51
2023-02-22T07:56:05.369Z,5.63
2023-02-22T07:58:32.645Z,5.80
2023-02-22T08:01:02.068Z,5.96
2023-02-22T08:03:36.447Z,6.23
2023-02-22T08:06:04.681Z,6.52
2023-02-22T08:08:31.100Z,6.75
2023-02-22T08:10:58.128Z,7.06
2023-02-22T08:13:24.568Z,7.30
2023-02-22T08:15:53.541Z,7.53
2023-02-22T08:18:21.892Z,7.86
2023-02-22T08:20:49.962Z,8.04
2023-02-22T08:23:17.830Z,8.30
2023-02-22T08:25:44.615Z,8.37
2023-02-22T08:28:13.760Z,8.69
2023-02-22T08:30:42.868Z,8.83
2023-02-22T08:33:10.921Z,8.99
2023-02-22T08:35:37.489Z,9.20
2023-02-22T08:38:06.557Z,9.17
2023-02-22T08:40:36.183Z,9.27
2023-02-22T08:43:04.376Z,9.10
2023-02-22T08:45:30.951Z,9.36
2023-02-22T08:47:58.320Z,9.38
2023-02-22T08:50:27.577Z,9.49
2023-02-22T08:52:56.088Z,9.44
2023-02-22T08:55:30.107Z,9.63
2023-02-22T08:57:56.446Z,9.74
2023-02-22T09:00:26.007Z,9.80
2023-02-22T09:02:53.085Z,10.02
2023-02-22T09:05:20.167Z,10.07
2023-02-22T09:07:47.882Z,10.00
2023-02-22T09:10:17.027Z,10.19
2023-02-22T09:12:43.742Z,10.35
2023-02-22T09:15:11.710Z,10.39
2023-02-22T09:17:38.641Z,10.46
2023-02-22T09:20:07.830Z,10.57
2023-02-22T09:22:34.649Z,10.52
2023-02-22T09:25:11.408Z,10.54
2023-02-22T09:27:43.554Z,10.59
2023-02-22T09:30:23.750Z,10.88
2023-02-22T09:32:53.131Z,10.98
2023-02-22T09:35:20.406Z,11.02
2023-02-22T09:37:46.854Z,10.74
2023-02-22T09:40:25.269Z,10.77
2023-02-22T09:42:56.434Z,10.80
2023-02-22T09:45:28.289Z,10.92
2023-02-22T09:48:15.159Z,11.03
2023-02-22T09:50:49.064Z,10.73
2023-02-22T09:53:17.773Z,11.03
2023-02-22T09:55:49.766Z,10.80
2023-02-22T09:58:25.229Z,11.10
2023-02-22T10:00:59.575Z,11.22
2023-02-22T10:03:50.663Z,11.34
2023-02-22T10:06:21.402Z,11.30
2023-02-22T10:08:50.048Z,11.46
2023-02-22T10:11:37.633Z,11.67
2023-02-22T10:14:27.861Z,12.03
2023-02-22T10:17:17.425Z,12.46
2023-02-22T10:19:43.806Z,12.44
2023-02-22T10:22:44.271Z,13.02
2023-02-22T10:25:17.856Z,13.18
2023-02-22T10:28:03.546Z,13.64
2023-02-22T10:30:34.329Z,14.24
2023-02-22T10:33:22.098Z,13.48
2023-02-22T10:35:51.509Z,13.37
2023-02-22T10:38:20.242Z,13.53
2023-02-22T10:40:54.895Z,13.91
2023-02-22T10:43:21.737Z,13.97
2023-02-22T10:45:48.285Z,14.34
2023-02-22T10:48:18.438Z,14.91
2023-02-22T10:50:46.449Z,15.30
2023-02-22T10:53:15.245Z,15.50
2023-02-22T10:56:32.692Z,15.93
2023-02-22T10:59:04.087Z,16.71
2023-02-22T11:01:33.231Z,16.42
2023-02-22T11:04:21.669Z,16.50
2023-02-22T11:07:06.421Z,16.43
2023-02-22T11:09:52.632Z,16.60
2023-02-22T11:12:29.576Z,17.22
2023-02-22T11:14:56.749Z,17.28
2023-02-22T11:17:31.042Z,16.98
2023-02-22T11:19:59.112Z,17.31
2023-02-22T11:22:38.512Z,16.95
2023-02-22T11:25:07.490Z,17.16
2023-02-22T11:27:43.757Z,17.21
2023-02-22T11:30:25.302Z,17.32
2023-02-22T11:33:00.630Z,17.30
2023-02-22T11:35:38.524Z,17.43
2023-02-22T11:38:23.488Z,16.64
2023-02-22T11:41:07.924Z,17.30
2023-02-22T11:43:34.549Z,16.80
2023-02-22T11:46:08.135Z,17.12
2023-02-22T11:48:39.076Z,17.63
2023-02-22T11:51:17.251Z,17.85
2023-02-22T11:53:54.337Z,17.17
2023-02-22T11:56:37.712Z,17.14
2023-02-22T11:59:21.146Z,17.75
2023-02-22T12:01:55.813Z,18.11
2023-02-22T12:04:43.971Z,18.34
2023-02-22T12:07:22.951Z,18.53
2023-02-22T12:10:13.221Z,18.59
2023-02-22T12:13:21.114Z,19.01
2023-02-22T12:15:52.859Z,18.58
2023-02-22T12:18:34.217Z,18.82
2023-02-22T12:21:05.565Z,19.11
2023-02-22T12:23:55.474Z,18.99
2023-02-22T12:26:31.012Z,18.98
2023-02-22T12:29:05.082Z,18.60
2023-02-22T12:31:40.498Z,18.78
2023-02-22T12:34:26.451Z,18.44
2023-02-22T12:37:27.692Z,18.30
2023-02-22T12:40:26.838Z,18.35
2023-02-22T12:42:56.183Z,18.13
2023-02-22T12:45:29.377Z,18.39
2023-02-22T12:48:21.508Z,18.56
2023-02-22T12:50:52.684Z,18.27
2023-02-22T12:53:30.052Z,18.49
2023-02-22T12:56:05.166Z,18.26
2023-02-22T12:58:49.362Z,18.37
2023-02-22T13:01:20.147Z,18.46
2023-02-22T13:03:47.221Z,18.88
2023-02-22T13:06:40.005Z,18.30
2023-02-22T13:09:18.583Z,18.45
2023-02-22T13:12:01.507Z,18.27
2023-02-22T13:14:57.363Z,17.73
2023-02-22T13:18:01.316Z,18.59
2023-02-22T13:20:40.650Z,18.88
2023-02-22T13:23:25.240Z,18.37
2023-02-22T13:25:59.150Z,17.82
2023-02-22T13:28:50.767Z,17.40
2023-02-22T13:31:42.242Z,17.35
2023-02-22T13:34:18.255Z,16.95
2023-02-22T13:37:12.630Z,16.64
2023-02-22T13:40:02.514Z,17.00
2023-02-22T13:42:49.818Z,16.64
2023-02-22T13:45:37.778Z,16.64
2023-02-22T13:48:32.597Z,16.60
2023-02-22T13:51:30.424Z,16.49
2023-02-22T13:54:07.677Z,16.83
2023-02-22T13:56:34.145Z,16.95
2023-02-22T13:59:03.832Z,16.88
2023-02-22T14:01:47.136Z,17.15
2023-02-22T14:04:21.288Z,17.08
2023-02-22T14:06:47.835Z,17.44
2023-02-22T14:09:50.452Z,17.34
2023-02-22T14:12:34.771Z,17.28
2023-02-22T14:15:18.734Z,17.28
2023-02-22T14:18:04.079Z,16.80
2023-02-22T14:20:35.233Z,16.59
2023-02-22T14:23:23.758Z,16.31
2023-02-22T14:25:51.427Z,16.07
2023-02-22T14:28:37.348Z,15.98
2023-02-22T14:31:19.653Z,15.77
2023-02-22T14:34:04.091Z,15.85
2023-02-22T14:36:50.831Z,15.67
2023-02-22T14:39:37.287Z,15.91
2023-02-22T14:42:15.657Z,15.84
2023-02-22T14:45:14.783Z,16.03
2023-02-22T14:48:03.923Z,15.88
2023-02-22T14:50:45.830Z,15.91
2023-02-22T14:53:12.148Z,15.80
2023-02-22T14:56:36.147Z,15.92
2023-02-22T14:59:13.161Z,15.90
2023-02-22T15:01:52.709Z,15.86
2023-02-22T15:04:28.428Z,15.69
2023-02-22T15:06:57.368Z,15.76
2023-02-22T15:09:36.529Z,15.88
2023-02-22T15:12:02.849Z,15.92
2023-02-22T15:14:37.697Z,15.80
2023-02-22T15:17:09.228Z,15.68
2023-02-22T15:19:40.709Z,15.43
2023-02-22T15:22:19.796Z,15.22
2023-02-22T15:24:58.698Z,15.16
2023-02-22T15:27:26.117Z,15.10
2023-02-22T15:29:59.489Z,15.02
2023-02-22T15:32:33.750Z,14.97
2023-02-22T15:35:17.119Z,14.82
2023-02-22T15:37:44.894Z,14.67
2023-02-22T15:40:21.798Z,14.63
2023-02-22T15:42:55.949Z,14.55
2023-02-22T15:45:25.135Z,14.50
2023-02-22T15:47:54.931Z,14.48
2023-02-22T15:50:26.044Z,14.39
2023-02-22T15:53:02.394Z,14.31
2023-02-22T15:55:34.106Z,14.31
2023-02-22T15:58:08.689Z,14.14
2023-02-22T16:00:37.990Z,14.14
2023-02-22T16:03:33.064Z,14.08
2023-02-22T16:05:59.897Z,14.06
2023-02-22T16:08:52.671Z,13.84
2023-02-22T16:11:29.946Z,13.85
2023-02-22T16:14:05.346Z,13.87
2023-02-22T16:16:37.137Z,13.78
2023-02-22T16:19:22.125Z,13.70
2023-02-22T16:21:54.072Z,13.55
2023-02-22T16:24:36.196Z,13.51
2023-02-22T16:27:10.694Z,13.48
2023-02-22T16:29:37.090Z,13.36
2023-02-22T16:32:03.997Z,13.28
2023-02-22T16:34:30.554Z,13.28
2023-02-22T16:36:57.846Z,13.24
2023-02-22T16:39:27.113Z,13.20
2023-02-22T16:41:56.273Z,13.13
2023-02-22T16:44:25.057Z,13.03
2023-02-22T16:46:57.642Z,12.96
2023-02-22T16:49:26.404Z,12.86
2023-02-22T16:51:55.972Z,12.87
2023-02-22T16:54:29.351Z,12.79
2023-02-22T16:56:57.515Z,12.76
2023-02-22T16:59:23.908Z,12.73
2023-02-22T17:01:50.266Z,12.65
2023-02-22T17:04:21.883Z,12.57
2023-02-22T17:06:48.862Z,12.49
2023-02-22T17:09:15.533Z,12.45
2023-02-22T17:11:43.180Z,12.43
2023-02-22T17:14:13.130Z,12.43
2023-02-22T17:16:39.471Z,12.37
2023-02-22T17:19:15.098Z,12.38
2023-02-22T17:21:41.552Z,12.30
2023-02-22T17:24:14.171Z,12.32
2023-02-22T17:26:41.304Z,12.31
2023-02-22T17:29:07.780Z,12.33
2023-02-22T17:31:34.866Z,12.29
2023-02-22T17:34:03.464Z,12.25
2023-02-22T17:36:31.072Z,12.20
2023-02-22T17:38:57.766Z,12.10
2023-02-22T17:41:24.195Z,12.07
2023-02-22T17:43:51.573Z,12.08
2023-02-22T17:46:20.856Z,12.03
2023-02-22T17:48:48.288Z,12.02
2023-02-22T17:51:14.634Z,12.00
2023-02-22T17:53:41.109Z,12.02
2023-02-22T17:56:10.404Z,12.00
2023-02-22T17:58:37.316Z,11.95
2023-02-22T18:01:04.441Z,11.95
2023-02-22T18:03:31.563Z,11.96
2023-02-22T18:06:00.679Z,11.88
2023-02-22T18:08:29.780Z,11.87
2023-02-22T18:10:56.603Z,11.79
2023-02-22T18:13:25.709Z,11.84
2023-02-22T18:15:52.579Z,11.85
2023-02-22T18:18:19.258Z,11.85
2023-02-22T18:20:47.089Z,11.83
2023-02-22T18:23:16.358Z,11.77
2023-02-22T18:26:07.750Z,11.75
2023-02-22T18:28:36.860Z,11.64
2023-02-22T18:31:15.465Z,11.64
2023-02-22T18:33:43.801Z,11.64
2023-02-22T18:36:14.052Z,11.65
2023-02-22T18:38:42.915Z,11.64
2023-02-22T18:41:11.849Z,11.65
2023-02-22T18:43:38.899Z,11.58
2023-02-22T18:46:11.127Z,11.54
2023-02-22T18:48:38.582Z,11.48
2023-02-22T18:51:07.838Z,11.38
2023-02-22T18:53:34.418Z,11.29
2023-02-22T18:56:12.001Z,11.27
2023-02-22T18:58:39.096Z,11.27
2023-02-22T19:01:07.313Z,11.21
2023-02-22T19:03:37.990Z,11.16
2023-02-22T19:06:08.612Z,11.10
2023-02-22T19:08:39.812Z,11.01
2023-02-22T19:11:12.139Z,11.03
2023-02-22T19:13:38.526Z,11.01
2023-02-22T19:16:07.337Z,10.95
2023-02-22T19:18:33.835Z,10.88
2023-02-22T19:21:02.963Z,10.87
2023-02-22T19:23:34.403Z,10.84
2023-02-22T19:26:03.126Z,10.75
2023-02-22T19:28:33.761Z,10.66
2023-02-22T19:31:21.438Z,10.61
2023-02-22T19:33:52.354Z,10.52
2023-02-22T19:36:20.177Z,10.46
2023-02-22T19:38:46.677Z,10.44
2023-02-22T19:41:22.474Z,10.36
2023-02-22T19:43:51.293Z,10.36
2023-02-22T19:46:18.578Z,10.37
2023-02-22T19:48:45.513Z,10.39
2023-02-22T19:51:14.250Z,10.31
2023-02-22T19:53:42.502Z,10.31
2023-02-22T19:56:16.043Z,10.30
2023-02-22T19:58:44.586Z,10.32
2023-02-22T20:01:16.441Z,10.29
2023-02-22T20:03:43.540Z,10.30
2023-02-22T20:06:11.484Z,10.28
2023-02-22T20:08:41.819Z,10.29
2023-02-22T20:11:10.474Z,10.23
2023-02-22T20:13:38.398Z,10.27
2023-02-22T20:16:05.261Z,10.26
2023-02-22T20:18:31.735Z,10.22
2023-02-22T20:20:58.131Z,10.22
2023-02-22T20:23:24.542Z,10.12
2023-02-22T20:25:55.239Z,10.15
2023-02-22T20:28:26.385Z,10.15
2023-02-22T20:30:52.786Z,10.15
2023-02-22T20:33:20.421Z,10.15
2023-02-22T20:35:47.654Z,10.11
2023-02-22T20:38:14.754Z,10.10
2023-02-22T20:40:42.280Z,10.04
2023-02-22T20:43:09.616Z,10.06
2023-02-22T20:45:39.486Z,10.02
2023-02-22T20:48:06.069Z,10.01
2023-02-22T20:50:34.994Z,9.98
2023-02-22T20:53:01.505Z,10.03
2023-02-22T20:55:27.875Z,10.05
2023-02-22T20:57:54.273Z,10.04
2023-02-22T21:00:20.704Z,10.03
2023-02-22T21:02:47.074Z,9.94
2023-02-22T21:05:13.766Z,9.99
2023-02-22T21:07:40.144Z,9.94
2023-02-22T21:10:06.992Z,9.96
2023-02-22T21:12:34.791Z,9.98
2023-02-22T21:15:01.198Z,9.94
2023-02-22T21:17:30.643Z,9.90
2023-02-22T21:19:58.118Z,9.90
2023-02-22T21:22:25.222Z,9.91
2023-02-22T21:24:51.903Z,9.89
2023-02-22T21:27:18.243Z,9.88
2023-02-22T21:29:44.595Z,9.84
2023-02-22T21:32:12.764Z,9.76
2023-02-22T21:34:39.683Z,9.74
2023-02-22T21:37:08.204Z,9.69
2023-02-22T21:39:35.237Z,9.79
2023-02-22T21:42:02.390Z,9.67
2023-02-22T21:44:29.842Z,9.72
2023-02-22T21:46:56.326Z,9.72
2023-02-22T21:49:23.179Z,9.68
2023-02-22T21:51:51.502Z,9.70
2023-02-22T21:54:18.267Z,9.70
2023-02-22T21:56:44.719Z,9.71
2023-02-22T21:59:13.722Z,9.60
2023-02-22T22:01:58.363Z,9.64
2023-02-22T22:04:29.610Z,9.63
2023-02-22T22:06:58.434Z,9.66
2023-02-22T22:09:28.942Z,9.70
2023-02-22T22:11:58.272Z,9.64
2023-02-22T22:14:26.004Z,9.60
2023-02-22T22:16:58.096Z,9.52
2023-02-22T22:19:25.829Z,9.53
2023-02-22T22:21:53.887Z,9.52
2023-02-22T22:24:22.606Z,9.47
2023-02-22T22:26:54.679Z,9.48
2023-02-22T22:29:23.683Z,9.46
2023-02-22T22:31:51.388Z,9.47
2023-02-22T22:34:18.127Z,9.44
2023-02-22T22:36:44.465Z,9.43
2023-02-22T22:39:13.821Z,9.49
2023-02-22T22:41:42.155Z,9.48
2023-02-22T22:44:09.877Z,9.49
2023-02-22T22:46:39.596Z,9.47
2023-02-22T22:49:11.340Z,9.45
2023-02-22T22:51:38.358Z,9.50
2023-02-22T22:54:09.287Z,9.52
2023-02-22T22:56:37.767Z,9.53
2023-02-22T22:59:09.531Z,9.52
2023-02-22T23:01:40.419Z,9.44
2023-02-22T23:04:11.748Z,9.45
2023-02-22T23:06:41.770Z,9.45
2023-02-22T23:09:18.712Z,9.40
2023-02-22T23:11:51.172Z,9.40
2023-02-22T23:14:23.996Z,9.34
2023-02-22T23:16:53.216Z,9.34
2023-02-22T23:19:20.181Z,9.32
2023-02-22T23:21:48.344Z,9.30
2023-02-22T23:24:16.485Z,9.31
2023-02-22T23:26:50.390Z,9.30
2023-02-22T23:29:19.822Z,9.30
2023-02-22T23:31:48.331Z,9.30
2023-02-22T23:34:17.008Z,9.25
2023-02-22T23:36:46.712Z,9.30
2023-02-22T23:39:15.117Z,9.18
2023-02-22T23:41:42.414Z,9.02
2023-02-22T23:44:17.370Z,9.04
2023-02-22T23:46:47.500Z,9.04
2023-02-22T23:49:19.872Z,9.00
2023-02-22T23:51:47.010Z,8.99
2023-02-22T23:54:19.080Z,9.02
2023-02-22T23:56:58.607Z,9.06
2023-02-22T23:59:26.851Z,9.02
